Time;durP1;ratioP1;P1;durP2;ratioP2;P2;SDS_P1;SDS_P2;PMS_P1;PMS_P2;Temp;Humidity;BMP_temperature;BMP_pressure;BME280_temperature;BME280_humidity;BME280_pressure;Samples;Min_cycle;Max_cycle;Signal;HPM_P1;HPM_P2
2022/01/25 00:24:15;;;;;;;1999.90;999.90;;;;;;;0.65;62.48;102917.84;4923311;28;99201;-74
2022/01/25 00:24:24;;;;;;;1999.90;999.90;;;;;;;0.63;62.46;102919.41;4924544;28;99279;-73
2022/01/25 00:27:25;;;;;;;1999.90;999.90;;;;;;;0.64;61.65;102911.66;4922368;28;100163;-74
2022/01/25 00:30:09;;;;;;;1999.90;999.90;;;;;;;1.02;61.40;102908.31;4922676;28;96958;-74
2022/01/25 00:32:38;;;;;;;1999.90;999.90;;;;;;;0.84;61.09;102910.91;4923156;28;98551;-73
2022/01/25 00:35:06;;;;;;;1999.90;999.90;;;;;;;1.14;60.52;102905.94;4919209;28;100178;-73
2022/01/25 00:37:34;;;;;;;1999.90;999.90;;;;;;;0.96;61.60;102909.44;4923659;28;98836;-74
2022/01/25 00:40:04;;;;;;;1999.90;999.90;;;;;;;0.87;61.52;102913.81;4923331;28;98457;-74
2022/01/25 00:42:32;;;;;;;1999.90;999.90;;;;;;;0.89;61.23;102902.72;4921294;28;97361;-73
2022/01/25 00:44:59;;;;;;;1999.90;999.90;;;;;;;0.86;61.38;102909.38;4922710;28;99939;-73
2022/01/25 00:47:27;;;;;;;1999.90;999.90;;;;;;;0.80;61.41;102911.41;4922821;28;98759;-74
2022/01/25 00:49:55;;;;;;;1999.90;999.90;;;;;;;0.81;61.58;102906.31;4923444;28;98808;-74
2022/01/25 00:53:53;;;;;;;1999.90;999.90;;;;;;;0.74;61.63;102908.22;4921128;28;99237;-73
2022/01/25 00:55:13;;;;;;;1999.90;999.90;;;;;;;0.74;61.43;102903.88;4920093;28;102145;-73
2022/01/25 00:57:41;;;;;;;1999.90;999.90;;;;;;;0.72;61.87;102900.19;4921571;28;97309;-75
2022/01/25 01:00:12;;;;;;;1999.90;999.90;;;;;;;0.71;61.77;102898.38;4925081;28;97098;-74
2022/01/25 01:02:39;;;;;;;1999.90;999.90;;;;;;;1.09;61.24;102894.06;4925591;28;96775;-74
2022/01/25 01:05:09;;;;;;;1999.90;999.90;;;;;;;0.92;60.96;102894.22;4920713;28;100106;-74
2022/01/25 01:07:36;;;;;;;1999.90;999.90;;;;;;;0.81;61.13;102894.91;4922148;28;96995;-75
2022/01/25 01:10:05;;;;;;;1999.90;999.90;;;;;;;0.89;61.74;102896.53;4928400;28;98251;-75
2022/01/25 01:15:28;;;;;;;1999.90;999.90;;;;;;;0.74;61.33;102884.66;4890670;28;99857;-74
2022/01/25 01:31:54;;;;;;;1999.90;999.90;;;;;;;0.91;60.62;102866.16;4925291;28;97322;-74
2022/01/25 01:34:46;;;;;;;1999.90;999.90;;;;;;;1.20;59.76;102864.50;4922735;28;98818;-74
2022/01/25 01:37:42;;;;;;;1999.90;999.90;;;;;;;1.38;58.48;102860.94;4922568;28;97543;-74
2022/01/25 01:40:45;;;;;;;1999.90;999.90;;;;;;;1.47;57.64;102859.16;4941217;28;98894;-74
2022/01/25 01:43:28;;;;;;;1999.90;999.90;;;;;;;1.50;57.60;102856.84;4920599;28;98530;-75
2022/01/25 01:46:05;;;;;;;1999.90;999.90;;;;;;;1.21;58.14;102858.50;4922719;28;99037;-72
2022/01/25 01:48:37;;;;;;;1999.90;999.90;;;;;;;1.32;57.92;102852.53;4912870;28;99258;-74
2022/01/25 01:51:14;;;;;;;1999.90;999.90;;;;;;;1.03;59.27;102856.81;4921399;28;97966;-73
2022/01/25 01:53:42;;;;;;;1999.90;999.90;;;;;;;0.90;59.24;102859.09;4916537;28;97616;-72
2022/01/25 01:56:10;;;;;;;1999.90;999.90;;;;;;;0.83;59.75;102861.91;4923378;28;97236;-74
2022/01/25 01:58:39;;;;;;;1999.90;999.90;;;;;;;0.79;60.37;102865.03;4925095;28;99531;-74
2022/01/25 02:01:11;;;;;;;1999.90;999.90;;;;;;;1.07;58.68;102856.31;4916209;28;98059;-74
2022/01/25 02:03:38;;;;;;;1999.90;999.90;;;;;;;1.19;58.63;102860.06;4903795;28;98592;-73
2022/01/25 02:06:06;;;;;;;1999.90;999.90;;;;;;;1.30;58.63;102853.19;4923790;28;97753;-74
2022/01/25 02:08:34;;;;;;;1999.90;999.90;;;;;;;1.38;57.73;102857.44;4926238;28;97966;-76
2022/01/25 02:11:03;;;;;;;1999.90;999.90;;;;;;;1.47;57.63;102853.91;4922333;28;98289;-75
2022/01/25 02:13:30;;;;;;;1999.90;999.90;;;;;;;1.14;58.80;102850.88;4923456;28;96946;-73
2022/01/25 02:16:03;;;;;;;1999.90;999.90;;;;;;;1.01;59.04;102854.03;4924905;28;97405;-74
2022/01/25 02:24:15;;;;;;;1999.90;999.90;;;;;;;0.61;60.49;102851.09;4863812;28;97488;-75
2022/01/25 02:26:43;;;;;;;1999.90;999.90;;;;;;;0.59;60.24;102844.84;4906460;28;98299;-75
2022/01/25 02:29:11;;;;;;;1999.90;999.90;;;;;;;0.53;60.97;102839.00;4906426;28;100818;-75
2022/01/25 02:31:38;;;;;;;1999.90;999.90;;;;;;;0.50;60.52;102837.81;4924626;28;99646;-73
2022/01/25 02:34:06;;;;;;;1999.90;999.90;;;;;;;0.46;60.75;102846.13;4922761;28;98989;-71
2022/01/25 02:36:35;;;;;;;1999.90;999.90;;;;;;;0.47;61.24;102840.09;4922983;28;97172;-74
2022/01/25 02:39:03;;;;;;;1999.90;999.90;;;;;;;0.45;61.08;102846.94;4902129;28;99396;-74
2022/01/25 02:41:32;;;;;;;1999.90;999.90;;;;;;;0.45;61.14;102847.81;4918620;28;99598;-73
2022/01/25 02:44:00;;;;;;;1999.90;999.90;;;;;;;0.40;61.36;102842.94;4918657;28;97345;-74
2022/01/25 02:49:12;;;;;;;1999.90;999.90;;;;;;;0.49;61.30;102838.56;4900729;28;98679;-73
2022/01/25 02:51:44;;;;;;;1999.90;999.90;;;;;;;0.52;61.25;102837.16;4905259;28;99744;-74
2022/01/25 02:54:13;;;;;;;1999.90;999.90;;;;;;;0.52;61.31;102842.38;4924186;28;97172;-74
2022/01/25 02:56:42;;;;;;;1999.90;999.90;;;;;;;0.55;61.49;102834.84;4920218;28;97611;-74
2022/01/25 02:59:11;;;;;;;1999.90;999.90;;;;;;;0.56;60.99;102828.81;4922106;28;100403;-74
2022/01/25 03:01:40;;;;;;;1999.90;999.90;;;;;;;0.53;61.32;102840.69;4924243;28;98495;-75
2022/01/25 03:04:08;;;;;;;1999.90;999.90;;;;;;;0.54;61.10;102829.47;4922324;28;97598;-74
2022/01/25 03:06:36;;;;;;;1999.90;999.90;;;;;;;0.48;61.65;102834.13;4923980;28;97596;-73
2022/01/25 03:09:06;;;;;;;1999.90;999.90;;;;;;;0.50;61.36;102835.19;4921031;28;99366;-74
2022/01/25 03:11:34;;;;;;;1999.90;999.90;;;;;;;0.46;61.84;102827.81;4920634;28;98734;-74
2022/01/25 03:14:08;;;;;;;1999.90;999.90;;;;;;;0.47;61.57;102827.94;4921467;28;97631;-73
2022/01/25 03:16:41;;;;;;;1999.90;999.90;;;;;;;0.44;61.62;102831.97;4923316;28;96988;-74
2022/01/25 03:21:52;;;;;;;1999.90;999.90;;;;;;;0.44;61.84;102822.44;4937749;28;100375;-75
2022/01/25 03:24:21;;;;;;;1999.90;999.90;;;;;;;0.45;61.68;102825.97;4921594;28;98448;-73
2022/01/25 03:26:49;;;;;;;1999.90;999.90;;;;;;;0.74;61.00;102820.03;4921173;28;98063;-75
2022/01/25 03:29:17;;;;;;;1999.90;999.90;;;;;;;0.54;61.29;102825.13;4933866;28;99946;-74
2022/01/25 03:31:45;;;;;;;1999.90;999.90;;;;;;;0.48;61.27;102821.94;4921586;28;97657;-73
2022/01/25 03:34:13;;;;;;;1999.90;999.90;;;;;;;0.43;61.89;102822.28;4916316;28;97771;-74
2022/01/25 03:36:42;;;;;;;1999.90;999.90;;;;;;;0.42;61.47;102825.66;4918710;28;98034;-74
2022/01/25 03:39:09;;;;;;;1999.90;999.90;;;;;;;0.36;61.77;102819.88;4913289;28;99330;-74
2022/01/25 03:41:38;;;;;;;1999.90;999.90;;;;;;;0.32;62.11;102815.13;4920227;28;98197;-74
2022/01/25 03:44:06;;;;;;;1999.90;999.90;;;;;;;0.38;61.57;102827.09;4916467;28;97908;-71
2022/01/25 03:46:39;;;;;;;1999.90;999.90;;;;;;;0.40;61.74;102821.97;4919347;28;97157;-73
2022/01/25 03:52:06;;;;;;;1999.90;999.90;;;;;;;0.28;61.63;102826.06;4836148;28;98936;-73
2022/01/25 03:54:34;;;;;;;1999.90;999.90;;;;;;;0.27;61.54;102826.84;4891822;28;97979;-72
2022/01/25 03:57:04;;;;;;;1999.90;999.90;;;;;;;0.17;61.68;102825.94;4916426;28;97734;-73
2022/01/25 03:59:32;;;;;;;1999.90;999.90;;;;;;;0.15;61.57;102827.50;4918327;28;97829;-73
2022/01/25 04:02:00;;;;;;;1999.90;999.90;;;;;;;0.07;61.71;102820.59;4914967;28;97773;-73
2022/01/25 04:04:29;;;;;;;1999.90;999.90;;;;;;;0.03;61.86;102821.06;4915027;28;98940;-71
2022/01/25 04:06:57;;;;;;;1999.90;999.90;;;;;;;-0.05;62.00;102821.13;4913740;28;98130;-73
2022/01/25 04:09:28;;;;;;;1999.90;999.90;;;;;;;-0.07;61.92;102821.00;4918017;28;98616;-72
2022/01/25 04:11:55;;;;;;;1999.90;999.90;;;;;;;-0.09;62.10;102822.53;4918397;28;99215;-73
2022/01/25 04:14:24;;;;;;;1999.90;999.90;;;;;;;-0.08;61.81;102823.44;4918495;28;97644;-74
2022/01/25 04:16:58;;;;;;;1999.90;999.90;;;;;;;-0.10;61.97;102811.94;4918630;28;97134;-72
2022/01/25 04:19:33;;;;;;;1999.90;999.90;;;;;;;-0.09;61.42;102804.22;4917511;28;99464;-73
2022/01/25 04:25:05;;;;;;;1999.90;999.90;;;;;;;-0.16;61.77;102819.19;4917080;28;97111;-73
2022/01/25 04:27:34;;;;;;;1999.90;999.90;;;;;;;-0.16;61.60;102811.31;4918476;28;97398;-74
2022/01/25 04:30:05;;;;;;;1999.90;999.90;;;;;;;-0.20;62.11;102812.72;4915088;28;97691;-73
2022/01/25 04:32:41;;;;;;;1999.90;999.90;;;;;;;-0.18;61.67;102810.25;4916075;28;99346;-74
2022/01/25 04:35:14;;;;;;;1999.90;999.90;;;;;;;-0.21;61.58;102807.34;4914564;28;96877;-70
2022/01/25 04:48:55;;;;;;;1999.90;999.90;;;;;;;-0.19;61.14;102817.16;4924703;28;97795;-73
2022/01/25 04:51:44;;;;;;;1999.90;999.90;;;;;;;0.16;59.84;102815.31;4922935;28;97248;-74
2022/01/25 04:54:20;;;;;;;1999.90;999.90;;;;;;;-0.04;60.82;102807.25;4929081;28;97579;-73
2022/01/25 04:56:55;;;;;;;1999.90;999.90;;;;;;;-0.04;60.31;102802.03;4909321;28;98826;-72
2022/01/25 04:59:28;;;;;;;1999.90;999.90;;;;;;;-0.07;60.31;102814.81;4924228;28;96890;-71
2022/01/25 05:02:03;;;;;;;1999.90;999.90;;;;;;;-0.12;60.76;102818.69;4908911;28;99419;-73
2022/01/25 05:04:38;;;;;;;1999.90;999.90;;;;;;;0.17;59.61;102817.16;4925601;28;100368;-74
2022/01/25 05:07:18;;;;;;;1999.90;999.90;;;;;;;-0.04;60.08;102813.41;4925728;28;98584;-73
2022/01/25 05:09:47;;;;;;;1999.90;999.90;;;;;;;-0.06;60.31;102819.28;4925078;28;98824;-74
2022/01/25 05:12:15;;;;;;;1999.90;999.90;;;;;;;-0.01;60.39;102823.28;4924288;28;98171;-75
2022/01/25 05:14:57;;;;;;;1999.90;999.90;;;;;;;0.31;59.10;102826.34;4918772;28;99558;-74
2022/01/25 05:17:35;;;;;;;1999.90;999.90;;;;;;;0.12;60.07;102821.03;4921689;28;98325;-75
2022/01/25 05:22:45;;;;;;;1999.90;999.90;;;;;;;-0.01;59.72;102813.69;4924299;28;99488;-73
2022/01/25 05:25:13;;;;;;;1999.90;999.90;;;;;;;-0.02;60.16;102810.94;4924764;28;99206;-74
2022/01/25 05:27:40;;;;;;;1999.90;999.90;;;;;;;-0.02;59.94;102809.25;4907040;28;97892;-74
2022/01/25 05:30:09;;;;;;;1999.90;999.90;;;;;;;-0.02;60.01;102817.13;4927109;28;97605;-74
2022/01/25 05:32:38;;;;;;;1999.90;999.90;;;;;;;-0.13;60.15;102809.94;4927100;28;99942;-75
2022/01/25 05:35:07;;;;;;;1999.90;999.90;;;;;;;0.20;59.35;102813.16;4923497;28;98485;-72
2022/01/25 05:37:40;;;;;;;1999.90;999.90;;;;;;;-0.02;59.72;102805.72;4927437;28;97241;-73
2022/01/25 05:40:15;;;;;;;1999.90;999.90;;;;;;;-0.11;59.57;102803.16;4931406;28;98128;-72
2022/01/25 05:42:49;;;;;;;1999.90;999.90;;;;;;;-0.21;59.71;102799.50;4907813;28;98500;-74
2022/01/25 05:45:36;;;;;;;1999.90;999.90;;;;;;;-0.27;59.95;102797.22;4927256;28;98479;-73
2022/01/25 05:48:06;;;;;;;1999.90;999.90;;;;;;;-0.32;60.39;102803.69;4924874;28;98478;-73
2022/01/25 05:50:34;;;;;;;1999.90;999.90;;;;;;;-0.34;60.36;102802.63;4925894;28;98322;-73
2022/01/25 05:53:01;;;;;;;1999.90;999.90;;;;;;;-0.35;60.46;102798.16;4926480;28;100763;-73
2022/01/25 05:55:29;;;;;;;1999.90;999.90;;;;;;;-0.35;60.73;102805.06;4925279;28;99612;-73
2022/01/25 05:57:57;;;;;;;1999.90;999.90;;;;;;;-0.36;60.72;102804.19;4943182;28;97567;-73
2022/01/25 06:00:25;;;;;;;1999.90;999.90;;;;;;;-0.35;60.78;102800.78;4924617;28;98014;-72
2022/01/25 06:02:55;;;;;;;1999.90;999.90;;;;;;;-0.37;60.77;102804.00;4919481;28;99058;-72
2022/01/25 06:05:25;;;;;;;1999.90;999.90;;;;;;;-0.40;60.77;102806.34;4924006;28;101751;-73
2022/01/25 06:07:53;;;;;;;1999.90;999.90;;;;;;;-0.36;61.11;102812.03;4922393;28;98284;-73
2022/01/25 06:10:21;;;;;;;1999.90;999.90;;;;;;;-0.33;60.91;102811.38;4925682;28;97325;-72
2022/01/25 06:12:48;;;;;;;1999.90;999.90;;;;;;;-0.34;61.02;102809.56;4923427;28;97960;-71
2022/01/25 06:15:16;;;;;;;1999.90;999.90;;;;;;;-0.38;61.04;102804.78;4924414;28;98737;-72
2022/01/25 06:17:45;;;;;;;1999.90;999.90;;;;;;;-0.40;60.99;102817.72;4919471;28;97293;-75
2022/01/25 06:20:13;;;;;;;1999.90;999.90;;;;;;;-0.41;61.32;102817.59;4920574;28;96923;-74
2022/01/25 06:22:42;;;;;;;1999.90;999.90;;;;;;;-0.42;61.10;102810.50;4920726;28;100885;-75
2022/01/25 06:25:11;;;;;;;1999.90;999.90;;;;;;;-0.37;61.42;102818.00;4904143;28;100753;-75
2022/01/25 06:27:39;;;;;;;1999.90;999.90;;;;;;;-0.30;60.65;102814.31;4917014;28;98019;-75
2022/01/25 06:30:08;;;;;;;1999.90;999.90;;;;;;;-0.32;61.23;102808.91;4922324;28;98339;-74
2022/01/25 06:32:36;;;;;;;1999.90;999.90;;;;;;;-0.28;61.15;102812.78;4922200;28;100578;-74
2022/01/25 06:35:04;;;;;;;1999.90;999.90;;;;;;;-0.24;61.19;102807.97;4924161;28;97610;-74
2022/01/25 06:37:32;;;;;;;1999.90;999.90;;;;;;;-0.18;60.91;102815.50;4924148;28;97412;-73
2022/01/25 06:40:01;;;;;;;1999.90;999.90;;;;;;;-0.33;61.20;102817.53;4917135;28;97900;-74
2022/01/25 06:42:31;;;;;;;1999.90;999.90;;;;;;;-0.26;60.93;102825.22;4921500;28;98584;-77
2022/01/25 06:45:02;;;;;;;1999.90;999.90;;;;;;;-0.20;60.65;102825.81;4906934;28;99488;-75
2022/01/25 06:47:31;;;;;;;1999.90;999.90;;;;;;;-0.17;60.60;102828.72;4906268;28;97233;-77
2022/01/25 06:49:58;;;;;;;1999.90;999.90;;;;;;;-0.14;60.52;102826.41;4919364;28;98800;-75
2022/01/25 06:52:26;;;;;;;1999.90;999.90;;;;;;;-0.13;60.61;102828.25;4919706;28;98887;-75
2022/01/25 06:54:54;;;;;;;1999.90;999.90;;;;;;;0.20;59.40;102828.84;4916840;28;98049;-75
2022/01/25 06:57:23;;;;;;;1999.90;999.90;;;;;;;0.32;58.96;102841.31;4934311;28;98735;-74
2022/01/25 06:59:50;;;;;;;1999.90;999.90;;;;;;;0.48;58.19;102839.34;4935328;28;98255;-74
2022/01/25 07:02:18;;;;;;;1999.90;999.90;;;;;;;0.21;59.32;102848.13;4920721;28;100433;-73
2022/01/25 07:04:46;;;;;;;1999.90;999.90;;;;;;;0.11;59.34;102845.38;4916603;28;99529;-74
2022/01/25 07:07:14;;;;;;;1999.90;999.90;;;;;;;0.13;59.35;102846.44;4917156;28;97539;-76
2022/01/25 07:09:42;;;;;;;1999.90;999.90;;;;;;;0.05;59.61;102852.63;4918705;28;97344;-74
2022/01/25 07:12:10;;;;;;;1999.90;999.90;;;;;;;-0.05;59.58;102844.69;4919942;28;97539;-74
2022/01/25 07:14:40;;;;;;;1999.90;999.90;;;;;;;-0.17;59.87;102849.66;4920249;28;99818;-74
2022/01/25 07:17:07;;;;;;;1999.90;999.90;;;;;;;0.23;58.63;102852.69;4913574;28;98118;-75
2022/01/25 07:19:35;;;;;;;1999.90;999.90;;;;;;;-0.02;59.44;102852.81;4918052;28;97202;-74
2022/01/25 07:22:03;;;;;;;1999.90;999.90;;;;;;;0.05;59.39;102865.72;4915490;28;98165;-76
2022/01/25 07:24:32;;;;;;;1999.90;999.90;;;;;;;0.00;59.33;102862.69;4917896;28;97179;-73
2022/01/25 07:27:00;;;;;;;1999.90;999.90;;;;;;;0.03;59.54;102860.34;4917563;28;97737;-77
2022/01/25 07:29:28;;;;;;;1999.90;999.90;;;;;;;0.02;59.33;102858.50;4917407;28;96962;-74
2022/01/25 07:31:57;;;;;;;1999.90;999.90;;;;;;;-0.01;59.67;102860.81;4915571;28;100066;-76
2022/01/25 07:34:25;;;;;;;1999.90;999.90;;;;;;;-0.06;59.61;102861.13;4918206;28;97816;-75
2022/01/25 07:37:01;;;;;;;1999.90;999.90;;;;;;;-0.11;60.07;102851.94;4919813;28;97053;-75
2022/01/25 07:39:42;;;;;;;1999.90;999.90;;;;;;;-0.09;60.10;102861.78;4920917;28;97395;-75
2022/01/25 07:42:21;;;;;;;1999.90;999.90;;;;;;;-0.11;59.57;102858.09;4918428;28;97582;-75
2022/01/25 07:45:07;;;;;;;1999.90;999.90;;;;;;;-0.19;59.92;102853.81;4918432;28;98480;-76
2022/01/25 07:47:43;;;;;;;1999.90;999.90;;;;;;;-0.18;59.60;102849.50;4915830;28;100096;-76
2022/01/25 07:50:26;;;;;;;1999.90;999.90;;;;;;;-0.12;60.06;102856.22;4925719;28;99506;-75
2022/01/25 07:52:54;;;;;;;1999.90;999.90;;;;;;;-0.25;60.36;102858.47;4924020;28;98322;-74
2022/01/25 07:55:22;;;;;;;1999.90;999.90;;;;;;;-0.24;60.40;102865.53;4904695;28;101471;-74
2022/01/25 07:57:49;;;;;;;1999.90;999.90;;;;;;;-0.23;60.52;102867.34;4905078;28;98880;-75
2022/01/25 08:00:17;;;;;;;1999.90;999.90;;;;;;;-0.22;60.47;102869.22;4917773;28;98223;-75
2022/01/25 08:02:47;;;;;;;1999.90;999.90;;;;;;;-0.16;60.30;102869.81;4911967;28;99766;-75
2022/01/25 08:05:26;;;;;;;1999.90;999.90;;;;;;;-0.11;59.82;102873.78;4920126;28;98718;-74
2022/01/25 08:08:11;;;;;;;1999.90;999.90;;;;;;;-0.14;59.75;102870.91;4923050;28;97836;-72
2022/01/25 08:10:55;;;;;;;1999.90;999.90;;;;;;;-0.13;59.97;102869.19;4898515;28;96958;-73
2022/01/25 08:13:38;;;;;;;1999.90;999.90;;;;;;;-0.18;59.73;102876.59;4928670;28;98253;-73
2022/01/25 08:16:10;;;;;;;1999.90;999.90;;;;;;;-0.22;59.69;102874.44;4923841;28;98930;-74
2022/01/25 08:18:48;;;;;;;1999.90;999.90;;;;;;;-0.22;60.12;102871.81;4909514;28;97069;-73
2022/01/25 08:21:27;;;;;;;1999.90;999.90;;;;;;;-0.15;59.74;102875.94;4921033;28;99509;-74
2022/01/25 08:24:18;;;;;;;1999.90;999.90;;;;;;;-0.18;60.02;102875.66;4909868;28;100016;-74
2022/01/25 08:27:03;;;;;;;1999.90;999.90;;;;;;;-0.20;59.86;102877.22;4910788;28;100108;-75
2022/01/25 08:29:47;;;;;;;1999.90;999.90;;;;;;;-0.26;60.34;102868.75;4925611;28;97396;-74
2022/01/25 08:32:29;;;;;;;1999.90;999.90;;;;;;;-0.25;59.80;102871.53;4919770;28;97157;-76
2022/01/25 08:35:19;;;;;;;1999.90;999.90;;;;;;;-0.31;59.75;102876.16;4879182;28;99380;-75
2022/01/25 08:37:47;;;;;;;1999.90;999.90;;;;;;;-0.26;60.01;102873.97;4869332;28;97608;-73
2022/01/25 08:40:25;;;;;;;1999.90;999.90;;;;;;;-0.29;60.07;102873.69;4871953;28;97957;-74
2022/01/25 08:42:56;;;;;;;1999.90;999.90;;;;;;;-0.27;60.08;102880.94;4876787;28;98096;-75
2022/01/25 08:45:29;;;;;;;1999.90;999.90;;;;;;;0.07;58.59;102878.19;4876805;28;97400;-76
2022/01/25 08:48:05;;;;;;;1999.90;999.90;;;;;;;-0.09;58.92;102880.09;4872265;28;98064;-76
2022/01/25 08:50:36;;;;;;;1999.90;999.90;;;;;;;-0.12;59.34;102885.00;4879175;28;98811;-75
2022/01/25 08:53:29;;;;;;;1999.90;999.90;;;;;;;-0.15;59.57;102876.88;4837872;28;97203;-75
2022/01/25 08:56:11;;;;;;;1999.90;999.90;;;;;;;-0.20;59.38;102878.13;4841996;28;97841;-75
2022/01/25 08:59:09;;;;;;;1999.90;999.90;;;;;;;-0.22;59.73;102869.22;4820946;29;99591;-74
2022/01/25 09:01:37;;;;;;;1999.90;999.90;;;;;;;-0.15;59.73;102870.72;4868576;28;98259;-75
2022/01/25 09:04:05;;;;;;;1999.90;999.90;;;;;;;-0.12;59.32;102865.81;4890581;28;97717;-75
2022/01/25 09:06:35;;;;;;;1999.90;999.90;;;;;;;-0.09;59.54;102874.88;4904648;28;100732;-75
2022/01/25 09:09:04;;;;;;;1999.90;999.90;;;;;;;-0.14;59.65;102872.56;4931277;28;98923;-74
2022/01/25 09:11:35;;;;;;;1999.90;999.90;;;;;;;-0.26;59.91;102863.50;4925354;28;96671;-75
2022/01/25 09:14:03;;;;;;;1999.90;999.90;;;;;;;-0.28;60.04;102858.16;4923010;28;97718;-76
2022/01/25 09:16:36;;;;;;;1999.90;999.90;;;;;;;-0.27;59.82;102860.00;4945287;28;99002;-76
2022/01/25 09:19:05;;;;;;;1999.90;999.90;;;;;;;-0.28;60.01;102858.16;4937164;28;98889;-76
2022/01/25 09:21:34;;;;;;;1999.90;999.90;;;;;;;-0.32;60.00;102866.47;4927804;28;96849;-75
2022/01/25 09:24:03;;;;;;;1999.90;999.90;;;;;;;-0.24;60.04;102861.97;4928222;28;97179;-75
2022/01/25 09:26:30;;;;;;;1999.90;999.90;;;;;;;-0.21;59.96;102864.91;4926208;28;99601;-75
2022/01/25 09:28:58;;;;;;;1999.90;999.90;;;;;;;-0.23;59.91;102867.34;4926968;28;98900;-75
2022/01/25 09:31:28;;;;;;;1999.90;999.90;;;;;;;0.04;58.84;102872.66;4925173;28;97348;-74
2022/01/25 09:33:56;;;;;;;1999.90;999.90;;;;;;;0.25;57.99;102870.31;4925656;28;97969;-76
2022/01/25 09:36:25;;;;;;;1999.90;999.90;;;;;;;-0.02;58.86;102868.53;4921856;28;97834;-75
2022/01/25 09:38:55;;;;;;;1999.90;999.90;;;;;;;-0.09;59.10;102872.25;4924712;28;100748;-74
2022/01/25 09:41:22;;;;;;;1999.90;999.90;;;;;;;-0.15;59.49;102865.47;4928124;28;96751;-74
2022/01/25 09:43:50;;;;;;;1999.90;999.90;;;;;;;-0.14;59.29;102864.72;4925545;28;97956;-74
2022/01/25 09:46:18;;;;;;;1999.90;999.90;;;;;;;-0.17;59.47;102867.03;4925426;28;99447;-74
2022/01/25 09:48:46;;;;;;;1999.90;999.90;;;;;;;-0.22;59.80;102869.22;4926118;28;99302;-75
2022/01/25 09:51:15;;;;;;;1999.90;999.90;;;;;;;0.08;58.83;102864.31;4909867;28;96976;-75
2022/01/25 09:53:43;;;;;;;1999.90;999.90;;;;;;;0.16;58.39;102868.59;4924998;28;97191;-75
2022/01/25 09:56:12;;;;;;;1999.90;999.90;;;;;;;0.34;57.37;102866.84;4938796;28;98717;-76
2022/01/25 09:58:39;;;;;;;1999.90;999.90;;;;;;;0.46;57.32;102864.47;4928842;28;97609;-75
2022/01/25 10:01:07;;;;;;;1999.90;999.90;;;;;;;0.52;56.48;102862.44;4925852;28;97284;-75
2022/01/25 10:03:38;;;;;;;1999.90;999.90;;;;;;;0.18;58.04;102871.34;4927219;28;97196;-76
2022/01/25 10:06:15;;;;;;;1999.90;999.90;;;;;;;0.02;58.28;102866.38;4927303;28;99072;-72
2022/01/25 10:08:44;;;;;;;1999.90;999.90;;;;;;;-0.08;58.51;102853.16;4926781;28;98661;-74
2022/01/25 10:11:15;;;;;;;1999.90;999.90;;;;;;;-0.19;58.87;102851.19;4930781;28;96949;-75
2022/01/25 10:13:45;;;;;;;1999.90;999.90;;;;;;;-0.22;59.45;102858.75;4929018;28;97624;-74
2022/01/25 10:16:17;;;;;;;1999.90;999.90;;;;;;;-0.24;59.43;102862.91;4909872;28;99840;-75
2022/01/25 10:18:46;;;;;;;1999.90;999.90;;;;;;;0.05;58.36;102861.41;4925154;28;98889;-76
2022/01/25 10:21:17;;;;;;;1999.90;999.90;;;;;;;-0.17;58.88;102857.50;4930586;28;96915;-75
2022/01/25 10:24:07;;;;;;;1999.90;999.90;;;;;;;-0.39;59.51;102853.56;4925945;28;97073;-75
2022/01/25 10:26:40;;;;;;;1999.90;999.90;;;;;;;-0.34;59.73;102854.94;4927169;28;99506;-76
2022/01/25 10:29:12;;;;;;;1999.90;999.90;;;;;;;-0.43;59.69;102845.28;4923263;28;98561;-74
2022/01/25 10:31:42;;;;;;;1999.90;999.90;;;;;;;-0.51;60.03;102841.91;4926954;28;97621;-76
2022/01/25 10:34:13;;;;;;;1999.90;999.90;;;;;;;-0.57;59.99;102843.91;4927216;28;100091;-76
2022/01/25 10:36:45;;;;;;;1999.90;999.90;;;;;;;-0.62;59.75;102839.94;4925896;28;99324;-74
2022/01/25 10:39:14;;;;;;;1999.90;999.90;;;;;;;-0.61;59.91;102836.53;4943427;28;98985;-77
2022/01/25 10:41:44;;;;;;;1999.90;999.90;;;;;;;-0.69;60.08;102840.09;4927585;28;97007;-74
2022/01/25 10:44:11;;;;;;;1999.90;999.90;;;;;;;-0.70;60.02;102837.34;4929437;28;96767;-75
2022/01/25 10:46:40;;;;;;;1999.90;999.90;;;;;;;-0.68;60.26;102841.94;4925657;28;97660;-75
2022/01/25 10:49:10;;;;;;;1999.90;999.90;;;;;;;-0.66;60.29;102829.94;4927162;28;97934;-75
2022/01/25 10:51:40;;;;;;;1999.90;999.90;;;;;;;-0.76;60.40;102831.50;4928888;28;98906;-75
2022/01/25 10:54:11;;;;;;;1999.90;999.90;;;;;;;-0.73;60.14;102843.19;4929667;28;97455;-75
2022/01/25 10:56:43;;;;;;;1999.90;999.90;;;;;;;-0.69;60.22;102845.34;4933756;28;99695;-76
2022/01/25 10:59:14;;;;;;;1999.90;999.90;;;;;;;-0.64;60.33;102832.69;4929171;28;98251;-75
2022/01/25 11:01:47;;;;;;;1999.90;999.90;;;;;;;-0.60;60.11;102835.78;4925332;28;98382;-76
2022/01/25 11:04:17;;;;;;;1999.90;999.90;;;;;;;-0.53;60.33;102827.75;4925211;28;96886;-75
2022/01/25 11:06:45;;;;;;;1999.90;999.90;;;;;;;-0.51;60.09;102825.28;4926113;28;97717;-75
2022/01/25 11:09:15;;;;;;;1999.90;999.90;;;;;;;-0.51;59.89;102822.66;4927086;28;98970;-74
2022/01/25 11:11:49;;;;;;;1999.90;999.90;;;;;;;-0.43;59.68;102829.59;4930378;28;96822;-75
2022/01/25 11:17:03;;;;;;;1999.90;999.90;;;;;;;-0.39;59.72;102827.41;4940709;28;97900;-72
2022/01/25 11:19:32;;;;;;;1999.90;999.90;;;;;;;-0.36;59.85;102822.50;4926901;28;98848;-72
2022/01/25 11:22:00;;;;;;;1999.90;999.90;;;;;;;-0.49;60.35;102824.69;4927045;28;96912;-76
2022/01/25 11:24:31;;;;;;;1999.90;999.90;;;;;;;-0.46;60.52;102824.97;4928790;28;98534;-74
2022/01/25 11:27:02;;;;;;;1999.90;999.90;;;;;;;-0.42;60.15;102823.56;4910125;28;99981;-74
2022/01/25 11:29:32;;;;;;;1999.90;999.90;;;;;;;-0.34;60.19;102828.78;4925666;28;99016;-74
2022/01/25 11:32:05;;;;;;;1999.90;999.90;;;;;;;-0.32;60.02;102828.94;4924420;28;98463;-75
2022/01/25 11:34:34;;;;;;;1999.90;999.90;;;;;;;-0.30;59.73;102823.06;4928724;28;97267;-73
2022/01/25 11:37:08;;;;;;;1999.90;999.90;;;;;;;-0.27;59.56;102815.53;4926796;28;99361;-74
2022/01/25 11:39:40;;;;;;;1999.90;999.90;;;;;;;-0.14;59.62;102815.00;4924769;28;98903;-73
2022/01/25 11:42:11;;;;;;;1999.90;999.90;;;;;;;-0.32;59.89;102808.00;4925460;28;96917;-73
2022/01/25 11:44:48;;;;;;;1999.90;999.90;;;;;;;-0.30;59.87;102809.97;4926347;28;96820;-73
2022/01/25 11:47:19;;;;;;;1999.90;999.90;;;;;;;-0.26;59.74;102804.28;4925756;28;99780;-75
2022/01/25 11:49:52;;;;;;;1999.90;999.90;;;;;;;-0.29;59.70;102796.16;4925755;28;98820;-74
2022/01/25 11:52:20;;;;;;;1999.90;999.90;;;;;;;-0.28;59.74;102792.75;4926702;28;97243;-75
2022/01/25 11:54:51;;;;;;;1999.90;999.90;;;;;;;-0.27;59.53;102784.16;4926102;28;97254;-74
2022/01/25 11:57:21;;;;;;;1999.90;999.90;;;;;;;-0.24;59.70;102792.28;4924578;28;98361;-76
2022/01/25 11:59:54;;;;;;;1999.90;999.90;;;;;;;-0.20;59.56;102788.25;4921569;28;99266;-74
2022/01/25 12:02:36;;;;;;;1999.90;999.90;;;;;;;-0.14;59.53;102787.16;4923098;28;97617;-76
2022/01/25 12:05:05;;;;;;;1999.90;999.90;;;;;;;-0.08;59.78;102790.34;4924677;28;99343;-76
2022/01/25 12:07:39;;;;;;;1999.90;999.90;;;;;;;-0.08;59.47;102789.41;4937272;28;100211;-76
2022/01/25 12:10:32;;;;;;;1999.90;999.90;;;;;;;-0.04;59.11;102788.94;4926042;28;98078;-75
2022/01/25 12:13:13;;;;;;;1999.90;999.90;;;;;;;-0.02;59.41;102785.72;4898120;28;96806;-76
2022/01/25 12:15:43;;;;;;;1999.90;999.90;;;;;;;-0.02;59.40;102783.09;4911182;28;96803;-75
2022/01/25 12:18:50;;;;;;;1999.90;999.90;;;;;;;-0.16;59.33;102793.94;4926422;28;98737;-74
2022/01/25 12:21:59;;;;;;;1999.90;999.90;;;;;;;-0.14;59.41;102789.78;4927230;28;98968;-75